createdAt,value
2018-04-30T00:01:53.722Z,19.35
2018-04-30T00:06:44.735Z,19.29
2018-04-30T00:11:35.765Z,19.25
2018-04-30T00:16:26.780Z,19.20
2018-04-30T00:21:17.800Z,19.14
2018-04-30T00:26:08.913Z,19.11
2018-04-30T00:31:00.675Z,19.11
2018-04-30T00:35:51.792Z,19.06
2018-04-30T00:40:42.827Z,19.04
2018-04-30T00:45:33.866Z,19.02
2018-04-30T00:50:24.878Z,18.93
2018-04-30T00:55:15.927Z,18.94
2018-04-30T01:00:06.936Z,18.94
2018-04-30T01:04:57.948Z,18.84
2018-04-30T01:09:48.968Z,18.80
2018-04-30T01:14:39.991Z,18.75
2018-04-30T01:19:31.054Z,18.76
2018-04-30T01:24:22.092Z,18.71
2018-04-30T01:29:13.885Z,18.65
2018-04-30T01:34:04.919Z,18.60
2018-04-30T01:38:55.991Z,18.51
2018-04-30T01:43:47.790Z,18.46
2018-04-30T01:48:38.820Z,18.41
2018-04-30T01:53:29.835Z,18.36
2018-04-30T01:58:20.915Z,18.33
2018-04-30T02:03:11.931Z,18.29
2018-04-30T02:08:03.683Z,18.23
2018-04-30T02:12:54.792Z,18.17
2018-04-30T02:17:46.556Z,18.11
2018-04-30T02:22:37.579Z,18.08
2018-04-30T02:27:28.585Z,18.05
2018-04-30T02:32:19.656Z,18.03
2018-04-30T02:37:10.676Z,17.99
2018-04-30T02:42:01.695Z,17.96
2018-04-30T02:46:52.724Z,17.92
2018-04-30T02:51:43.767Z,17.87
2018-04-30T02:56:34.863Z,17.83
2018-04-30T03:01:25.884Z,17.78
2018-04-30T03:06:16.908Z,17.73
2018-04-30T03:11:07.988Z,17.67
2018-04-30T03:15:59.020Z,17.61
2018-04-30T03:20:50.139Z,17.58
2018-04-30T03:25:41.186Z,17.50
2018-04-30T03:30:32.200Z,17.46
2018-04-30T03:35:23.212Z,17.39
2018-04-30T03:40:14.267Z,17.35
2018-04-30T03:45:05.291Z,17.28
2018-04-30T03:49:56.312Z,17.20
2018-04-30T03:54:47.388Z,17.12
2018-04-30T03:59:39.169Z,17.12
2018-04-30T04:04:48.901Z,17.05
2018-04-30T04:09:40.050Z,17.01
2018-04-30T04:14:31.090Z,16.96
2018-04-30T04:19:22.118Z,16.90
2018-04-30T04:24:13.148Z,16.87
2018-04-30T04:29:04.171Z,16.75
2018-04-30T04:33:55.171Z,16.76
2018-04-30T04:38:46.184Z,16.73
2018-04-30T04:43:37.228Z,16.73
2018-04-30T04:48:28.241Z,16.72
2018-04-30T04:53:19.254Z,16.77
2018-04-30T04:58:10.285Z,16.79
2018-04-30T05:03:01.316Z,16.79
2018-04-30T05:07:52.332Z,16.84
2018-04-30T05:12:43.433Z,16.89
2018-04-30T05:17:34.591Z,16.94
2018-04-30T05:22:25.604Z,16.95
2018-04-30T05:27:16.620Z,16.96
2018-04-30T05:32:07.643Z,16.95
2018-04-30T05:36:58.640Z,17.02
2018-04-30T05:41:50.440Z,17.11
2018-04-30T05:46:41.460Z,17.23
2018-04-30T05:51:32.472Z,17.32
2018-04-30T05:56:23.503Z,17.38
2018-04-30T06:01:14.600Z,17.41
2018-04-30T06:06:05.664Z,17.44
2018-04-30T06:10:56.688Z,17.47
2018-04-30T06:15:47.732Z,17.58
2018-04-30T06:20:39.598Z,17.66
2018-04-30T06:25:30.699Z,17.82
2018-04-30T06:30:22.469Z,17.94
2018-04-30T06:35:13.490Z,18.07
2018-04-30T06:40:04.518Z,18.20
2018-04-30T06:44:56.408Z,18.34
2018-04-30T06:49:47.463Z,18.56
2018-04-30T06:54:39.276Z,19.50
2018-04-30T06:59:30.309Z,21.32
2018-04-30T07:04:22.817Z,22.91
2018-04-30T07:09:13.958Z,24.07
2018-04-30T07:14:05.704Z,24.79
2018-04-30T07:18:56.738Z,24.93
2018-04-30T07:23:47.836Z,25.42
2018-04-30T07:28:38.887Z,25.54
2018-04-30T07:33:30.020Z,25.54
2018-04-30T07:38:22.579Z,25.78
2018-04-30T07:43:13.633Z,25.46
2018-04-30T07:48:05.575Z,25.52
2018-04-30T07:52:57.465Z,25.56
2018-04-30T07:57:48.568Z,25.70
2018-04-30T08:02:39.687Z,25.56
2018-04-30T08:07:31.561Z,25.42
2018-04-30T08:12:22.604Z,25.72
2018-04-30T08:17:13.696Z,26.06
2018-04-30T08:22:05.447Z,26.25
2018-04-30T08:26:57.306Z,26.16
2018-04-30T08:31:48.271Z,26.33
2018-04-30T08:36:39.348Z,26.15
2018-04-30T08:41:30.326Z,25.92
2018-04-30T08:46:22.907Z,26.42
2018-04-30T08:51:14.683Z,26.51
2018-04-30T08:56:05.702Z,26.43
2018-04-30T09:00:56.729Z,26.14
2018-04-30T09:05:47.765Z,26.19
2018-04-30T09:10:38.817Z,25.91
2018-04-30T09:15:29.843Z,25.86
2018-04-30T09:20:20.905Z,25.89
2018-04-30T09:25:11.940Z,26.38
2018-04-30T09:30:02.964Z,26.47
2018-04-30T09:34:53.985Z,26.59
2018-04-30T09:39:45.065Z,26.44
2018-04-30T09:44:36.113Z,26.48
2018-04-30T09:49:27.175Z,26.44
2018-04-30T09:54:18.347Z,26.47
2018-04-30T09:59:10.151Z,26.54
2018-04-30T10:04:01.175Z,26.54
2018-04-30T10:08:52.194Z,26.33
2018-04-30T10:13:43.323Z,25.76
2018-04-30T10:18:34.339Z,25.00
2018-04-30T10:23:25.471Z,24.44
2018-04-30T10:28:17.194Z,24.32
2018-04-30T10:33:08.229Z,24.00
2018-04-30T10:37:59.342Z,23.56
2018-04-30T10:42:50.301Z,23.76
2018-04-30T10:47:41.336Z,23.46
2018-04-30T10:52:33.136Z,23.05
2018-04-30T10:57:24.193Z,22.98
2018-04-30T11:02:15.247Z,22.87
2018-04-30T11:07:06.260Z,22.95
2018-04-30T11:11:58.029Z,22.52
2018-04-30T11:16:49.095Z,22.43
2018-04-30T11:21:40.188Z,21.90
2018-04-30T11:26:31.216Z,21.66
2018-04-30T11:31:22.270Z,21.63
2018-04-30T11:36:13.302Z,21.44
2018-04-30T11:41:05.076Z,21.35
2018-04-30T11:45:56.118Z,21.07
2018-04-30T11:50:47.169Z,20.99
2018-04-30T11:55:38.219Z,21.01
2018-04-30T12:00:30.076Z,21.04
2018-04-30T12:05:21.100Z,21.03
2018-04-30T12:10:12.259Z,21.07
2018-04-30T12:15:03.297Z,21.09
2018-04-30T12:19:54.373Z,21.16
2018-04-30T12:24:45.388Z,21.08
2018-04-30T12:29:36.463Z,21.00
2018-04-30T12:34:27.535Z,21.00
2018-04-30T12:39:18.580Z,21.20
2018-04-30T12:44:09.672Z,21.21
2018-04-30T12:49:08.441Z,21.36
2018-04-30T12:53:59.516Z,21.81
2018-04-30T12:58:50.557Z,21.39
2018-04-30T13:03:41.591Z,21.54
2018-04-30T13:08:32.653Z,21.94
2018-04-30T13:13:23.852Z,22.35
2018-04-30T13:18:14.998Z,22.34
2018-04-30T13:23:06.055Z,22.19
2018-04-30T13:27:57.107Z,21.72
2018-04-30T13:32:48.967Z,21.47
2018-04-30T13:37:40.059Z,21.30
2018-04-30T13:42:31.074Z,21.16
2018-04-30T13:47:22.140Z,21.58
2018-04-30T13:52:13.181Z,21.98
2018-04-30T13:57:04.301Z,21.86
2018-04-30T14:01:55.345Z,21.94
2018-04-30T14:06:46.385Z,21.76
2018-04-30T14:11:37.426Z,21.81
2018-04-30T14:16:28.447Z,22.09
2018-04-30T14:21:19.507Z,22.27
2018-04-30T14:26:10.572Z,22.28
2018-04-30T14:31:01.596Z,22.39
2018-04-30T14:35:52.615Z,22.37
2018-04-30T14:40:43.691Z,22.18
2018-04-30T14:45:35.494Z,22.24
2018-04-30T14:50:26.556Z,21.93
2018-04-30T14:55:18.363Z,21.76
2018-04-30T15:00:09.443Z,21.80
2018-04-30T15:05:00.476Z,21.81
2018-04-30T15:09:51.559Z,21.76
2018-04-30T15:14:43.340Z,21.65
2018-04-30T15:19:34.468Z,21.53
2018-04-30T15:24:25.470Z,21.43
2018-04-30T15:29:16.508Z,21.18
2018-04-30T15:34:07.559Z,20.95
2018-04-30T15:38:58.624Z,20.95
2018-04-30T15:43:50.426Z,20.91
2018-04-30T15:48:41.456Z,20.93
2018-04-30T15:53:32.612Z,20.99
2018-04-30T15:58:24.419Z,20.84
2018-04-30T16:03:16.144Z,20.80
2018-04-30T16:08:07.163Z,20.82
2018-04-30T16:12:58.184Z,20.80
2018-04-30T16:17:49.227Z,20.68
2018-04-30T16:22:40.372Z,20.59
2018-04-30T16:27:31.372Z,20.63
2018-04-30T16:32:22.376Z,20.50
2018-04-30T16:37:13.427Z,20.46
2018-04-30T16:42:04.446Z,20.32
2018-04-30T16:46:55.571Z,20.31
2018-04-30T16:51:46.588Z,20.29
2018-04-30T16:56:37.657Z,20.18
2018-04-30T17:01:29.414Z,20.09
2018-04-30T17:06:20.569Z,20.15
2018-04-30T17:11:11.599Z,20.13
2018-04-30T17:16:02.623Z,20.15
2018-04-30T17:20:53.656Z,20.17
2018-04-30T17:25:44.699Z,20.16
2018-04-30T17:30:36.521Z,20.13
2018-04-30T17:35:27.556Z,20.10
2018-04-30T17:40:18.587Z,20.06
2018-04-30T17:45:10.372Z,20.07
2018-04-30T17:50:01.410Z,20.03
2018-04-30T17:54:52.429Z,19.97
2018-04-30T17:59:43.460Z,19.88
2018-04-30T18:04:34.544Z,19.83
2018-04-30T18:09:25.582Z,19.74
2018-04-30T18:14:16.718Z,19.63
2018-04-30T18:19:07.747Z,19.50
2018-04-30T18:23:58.819Z,19.47
2018-04-30T18:28:50.592Z,19.47
2018-04-30T18:33:41.624Z,19.55
2018-04-30T18:38:32.660Z,19.60
2018-04-30T18:43:23.819Z,19.56
2018-04-30T18:48:14.908Z,19.49
2018-04-30T18:53:05.990Z,19.47
2018-04-30T18:57:57.032Z,19.41
2018-04-30T19:02:48.109Z,19.31
2018-04-30T19:07:39.133Z,19.20
2018-04-30T19:12:30.281Z,19.06
2018-04-30T19:17:22.070Z,18.97
2018-04-30T19:22:13.106Z,18.89
2018-04-30T19:27:04.287Z,18.87
2018-04-30T19:31:55.390Z,18.88
2018-04-30T19:36:47.261Z,18.81
2018-04-30T19:41:38.289Z,18.69
2018-04-30T19:46:29.368Z,18.56
2018-04-30T19:51:21.181Z,18.50
2018-04-30T19:56:12.267Z,18.44
2018-04-30T20:01:03.284Z,18.44
2018-04-30T20:05:54.472Z,18.44
2018-04-30T20:10:46.253Z,18.41
2018-04-30T20:15:37.288Z,18.32
2018-04-30T20:20:28.420Z,18.34
2018-04-30T20:25:19.400Z,18.28
2018-04-30T20:30:11.228Z,18.28
2018-04-30T20:35:02.245Z,18.22
2018-04-30T20:39:53.286Z,18.21
2018-04-30T20:44:45.151Z,18.08
2018-04-30T20:49:36.924Z,18.09
2018-04-30T20:54:28.027Z,18.09
2018-04-30T20:59:19.125Z,18.05
2018-04-30T21:04:10.953Z,18.01
2018-04-30T21:09:12.396Z,17.95
2018-04-30T21:14:03.433Z,17.83
2018-04-30T21:18:54.458Z,17.71
2018-04-30T21:23:45.460Z,17.52
2018-04-30T21:28:36.479Z,17.45
2018-04-30T21:33:27.499Z,17.36
2018-04-30T21:38:18.515Z,17.16
2018-04-30T21:43:09.547Z,17.03
2018-04-30T21:48:00.660Z,16.95
2018-04-30T21:52:51.738Z,16.87
2018-04-30T21:57:42.786Z,16.79
2018-04-30T22:02:33.822Z,16.78
2018-04-30T22:07:24.840Z,16.76
2018-04-30T22:12:15.868Z,16.67
2018-04-30T22:17:06.892Z,16.67
2018-04-30T22:21:57.915Z,16.62
2018-04-30T22:26:48.932Z,16.66
2018-04-30T22:31:39.976Z,16.71
2018-04-30T22:36:31.040Z,16.68
2018-04-30T22:41:22.779Z,16.63
2018-04-30T22:46:14.539Z,16.51
2018-04-30T22:51:05.576Z,16.52
2018-04-30T22:55:56.626Z,16.49
2018-04-30T23:00:47.637Z,16.39
2018-04-30T23:05:38.651Z,16.32
2018-04-30T23:10:29.676Z,16.27
2018-04-30T23:15:20.797Z,16.17
2018-04-30T23:20:11.828Z,16.10
2018-04-30T23:25:02.875Z,16.04
2018-04-30T23:29:53.957Z,15.91
2018-04-30T23:34:45.050Z,15.85
2018-04-30T23:39:36.818Z,15.80
2018-04-30T23:44:27.844Z,15.74
2018-04-30T23:49:18.879Z,15.61
2018-04-30T23:54:09.901Z,15.53
2018-04-30T23:59:00.946Z,15.57
